Main page
METAR-TAF:

METAR-TAF

Airports :

Kangra Airport

Dharamsala, India

latitude: 32-09-54N, longitude: 76-15-48E, elevation: 770 m

Current weather observation

The report was made 1 hour and 11 minutes ago, at 01:00 UTC
Wind 2 kt from the Southeast
Temperature 9°C
Humidity 100%
Pressure 1018 hPa
Visibility: 6000 m

METAR: VIGG 160100Z 13002KT 6000 NSC 09/09 Q1018

Time: 07:41 (02:11 UTC)


TAF: missing

Weather observations and forecasts of more than 4000 airports (METAR and TAF reports).

The available stations are represented by yellow and red dots on the map.

Hover mouse over dot to see the name of the station.

Then click to see weather observations and forecasts.

To change the map : click on the green buttons with a black cross to zoom in, on the green button with a dash to zoom out, or on the green arrows for adjacent maps.


METAR-TAF: